sensor_id;sensor_type;location;lat;lon;timestamp;P1;durP1;ratioP1;P2;durP2;ratioP2
29120;SDS011;16191;49.548;8.658;2023-03-23T00:01:17;3.63;;;1.55;;
29120;SDS011;16191;49.548;8.658;2023-03-23T00:03:48;3.53;;;1.10;;
29120;SDS011;16191;49.548;8.658;2023-03-23T00:06:16;2.55;;;1.38;;
29120;SDS011;16191;49.548;8.658;2023-03-23T00:08:43;1.83;;;1.25;;
29120;SDS011;16191;49.548;8.658;2023-03-23T00:11:11;1.88;;;1.13;;
29120;SDS011;16191;49.548;8.658;2023-03-23T00:13:42;3.13;;;1.20;;
29120;SDS011;16191;49.548;8.658;2023-03-23T00:16:08;3.78;;;1.30;;
29120;SDS011;16191;49.548;8.658;2023-03-23T00:18:44;2.00;;;1.30;;
29120;SDS011;16191;49.548;8.658;2023-03-23T00:21:13;2.35;;;1.30;;
29120;SDS011;16191;49.548;8.658;2023-03-23T00:23:39;3.15;;;1.40;;
29120;SDS011;16191;49.548;8.658;2023-03-23T00:26:05;3.25;;;1.20;;
29120;SDS011;16191;49.548;8.658;2023-03-23T00:28:31;2.05;;;1.27;;
29120;SDS011;16191;49.548;8.658;2023-03-23T00:31:01;1.67;;;1.05;;
29120;SDS011;16191;49.548;8.658;2023-03-23T00:33:34;3.55;;;1.00;;
29120;SDS011;16191;49.548;8.658;2023-03-23T00:36:09;3.72;;;1.30;;
29120;SDS011;16191;49.548;8.658;2023-03-23T00:41:02;2.42;;;1.25;;
29120;SDS011;16191;49.548;8.658;2023-03-23T00:43:28;2.58;;;1.40;;
29120;SDS011;16191;49.548;8.658;2023-03-23T00:45:56;6.72;;;1.50;;
29120;SDS011;16191;49.548;8.658;2023-03-23T00:48:26;2.03;;;1.20;;
29120;SDS011;16191;49.548;8.658;2023-03-23T00:50:53;1.33;;;1.13;;
29120;SDS011;16191;49.548;8.658;2023-03-23T00:53:20;5.88;;;1.23;;
29120;SDS011;16191;49.548;8.658;2023-03-23T00:55:47;2.05;;;1.20;;
29120;SDS011;16191;49.548;8.658;2023-03-23T00:58:14;4.22;;;1.58;;
29120;SDS011;16191;49.548;8.658;2023-03-23T01:00:40;3.22;;;1.30;;
29120;SDS011;16191;49.548;8.658;2023-03-23T01:03:07;3.38;;;1.17;;
29120;SDS011;16191;49.548;8.658;2023-03-23T01:05:38;2.00;;;1.23;;
29120;SDS011;16191;49.548;8.658;2023-03-23T01:08:04;2.17;;;1.38;;
29120;SDS011;16191;49.548;8.658;2023-03-23T01:10:31;3.90;;;1.20;;
29120;SDS011;16191;49.548;8.658;2023-03-23T01:12:58;4.82;;;1.30;;
29120;SDS011;16191;49.548;8.658;2023-03-23T01:15:26;1.35;;;1.00;;
29120;SDS011;16191;49.548;8.658;2023-03-23T01:17:52;1.20;;;1.00;;
29120;SDS011;16191;49.548;8.658;2023-03-23T01:20:18;1.92;;;1.20;;
29120;SDS011;16191;49.548;8.658;2023-03-23T01:22:44;2.85;;;1.30;;
29120;SDS011;16191;49.548;8.658;2023-03-23T01:25:10;2.25;;;1.20;;
29120;SDS011;16191;49.548;8.658;2023-03-23T01:27:36;1.20;;;0.82;;
29120;SDS011;16191;49.548;8.658;2023-03-23T01:30:03;1.65;;;1.17;;
29120;SDS011;16191;49.548;8.658;2023-03-23T01:32:30;1.02;;;0.90;;
29120;SDS011;16191;49.548;8.658;2023-03-23T01:34:56;2.63;;;1.10;;
29120;SDS011;16191;49.548;8.658;2023-03-23T01:37:22;1.98;;;1.05;;
29120;SDS011;16191;49.548;8.658;2023-03-23T01:39:52;2.38;;;0.90;;
29120;SDS011;16191;49.548;8.658;2023-03-23T01:42:23;5.13;;;1.20;;
29120;SDS011;16191;49.548;8.658;2023-03-23T01:50:39;3.45;;;1.17;;
29120;SDS011;16191;49.548;8.658;2023-03-23T01:53:09;2.45;;;1.10;;
29120;SDS011;16191;49.548;8.658;2023-03-23T01:55:37;2.92;;;0.73;;
29120;SDS011;16191;49.548;8.658;2023-03-23T01:58:06;1.92;;;1.02;;
29120;SDS011;16191;49.548;8.658;2023-03-23T02:00:33;1.40;;;1.08;;
29120;SDS011;16191;49.548;8.658;2023-03-23T02:02:59;1.95;;;0.95;;
29120;SDS011;16191;49.548;8.658;2023-03-23T02:05:39;4.10;;;1.13;;
29120;SDS011;16191;49.548;8.658;2023-03-23T02:08:22;2.45;;;0.93;;
29120;SDS011;16191;49.548;8.658;2023-03-23T02:10:48;1.05;;;0.85;;
29120;SDS011;16191;49.548;8.658;2023-03-23T02:13:14;2.15;;;0.95;;
29120;SDS011;16191;49.548;8.658;2023-03-23T02:15:53;1.48;;;1.05;;
29120;SDS011;16191;49.548;8.658;2023-03-23T02:33:17;1.35;;;1.00;;
29120;SDS011;16191;49.548;8.658;2023-03-23T02:39:03;1.88;;;1.10;;
29120;SDS011;16191;49.548;8.658;2023-03-23T02:41:38;1.42;;;1.00;;
29120;SDS011;16191;49.548;8.658;2023-03-23T02:44:08;1.95;;;0.90;;
29120;SDS011;16191;49.548;8.658;2023-03-23T02:46:35;2.25;;;1.13;;
29120;SDS011;16191;49.548;8.658;2023-03-23T02:49:02;1.80;;;0.90;;
29120;SDS011;16191;49.548;8.658;2023-03-23T02:51:31;3.15;;;1.23;;
29120;SDS011;16191;49.548;8.658;2023-03-23T02:53:59;3.58;;;1.15;;
29120;SDS011;16191;49.548;8.658;2023-03-23T02:56:27;1.85;;;1.02;;
29120;SDS011;16191;49.548;8.658;2023-03-23T02:58:55;1.63;;;1.10;;
29120;SDS011;16191;49.548;8.658;2023-03-23T03:04:20;1.65;;;1.00;;
29120;SDS011;16191;49.548;8.658;2023-03-23T03:07:06;2.03;;;0.90;;
29120;SDS011;16191;49.548;8.658;2023-03-23T03:09:46;3.17;;;1.30;;
29120;SDS011;16191;49.548;8.658;2023-03-23T03:12:29;1.63;;;1.08;;
29120;SDS011;16191;49.548;8.658;2023-03-23T03:15:13;2.70;;;1.33;;
29120;SDS011;16191;49.548;8.658;2023-03-23T03:17:58;5.20;;;1.13;;
29120;SDS011;16191;49.548;8.658;2023-03-23T03:20:30;1.98;;;1.00;;
29120;SDS011;16191;49.548;8.658;2023-03-23T03:22:57;2.55;;;1.10;;
29120;SDS011;16191;49.548;8.658;2023-03-23T03:25:26;2.55;;;1.23;;
29120;SDS011;16191;49.548;8.658;2023-03-23T03:27:55;4.03;;;1.20;;
29120;SDS011;16191;49.548;8.658;2023-03-23T03:30:38;2.55;;;1.35;;
29120;SDS011;16191;49.548;8.658;2023-03-23T03:33:06;2.63;;;1.40;;
29120;SDS011;16191;49.548;8.658;2023-03-23T03:35:31;3.05;;;1.10;;
29120;SDS011;16191;49.548;8.658;2023-03-23T03:38:07;3.78;;;1.40;;
29120;SDS011;16191;49.548;8.658;2023-03-23T03:40:34;3.42;;;1.23;;
29120;SDS011;16191;49.548;8.658;2023-03-23T03:43:00;3.25;;;1.63;;
29120;SDS011;16191;49.548;8.658;2023-03-23T03:45:26;1.88;;;1.10;;
29120;SDS011;16191;49.548;8.658;2023-03-23T03:47:52;2.78;;;1.27;;
29120;SDS011;16191;49.548;8.658;2023-03-23T03:50:17;1.17;;;1.00;;
29120;SDS011;16191;49.548;8.658;2023-03-23T03:52:43;3.33;;;1.45;;
29120;SDS011;16191;49.548;8.658;2023-03-23T03:55:09;4.13;;;1.40;;
29120;SDS011;16191;49.548;8.658;2023-03-23T03:57:38;3.15;;;1.15;;
29120;SDS011;16191;49.548;8.658;2023-03-23T04:00:05;1.40;;;0.90;;
29120;SDS011;16191;49.548;8.658;2023-03-23T04:02:43;3.78;;;1.38;;
29120;SDS011;16191;49.548;8.658;2023-03-23T04:05:14;2.55;;;1.10;;
29120;SDS011;16191;49.548;8.658;2023-03-23T04:07:41;2.03;;;1.17;;
29120;SDS011;16191;49.548;8.658;2023-03-23T04:10:08;3.78;;;1.30;;
29120;SDS011;16191;49.548;8.658;2023-03-23T04:12:37;2.58;;;1.48;;
29120;SDS011;16191;49.548;8.658;2023-03-23T04:15:22;1.63;;;1.10;;
29120;SDS011;16191;49.548;8.658;2023-03-23T04:17:49;2.47;;;0.95;;
29120;SDS011;16191;49.548;8.658;2023-03-23T04:20:15;2.40;;;1.33;;
29120;SDS011;16191;49.548;8.658;2023-03-23T04:22:48;1.20;;;1.10;;
29120;SDS011;16191;49.548;8.658;2023-03-23T04:25:15;6.45;;;1.45;;
29120;SDS011;16191;49.548;8.658;2023-03-23T04:27:47;2.00;;;1.35;;
29120;SDS011;16191;49.548;8.658;2023-03-23T04:30:20;3.97;;;1.20;;
29120;SDS011;16191;49.548;8.658;2023-03-23T04:33:00;2.83;;;1.15;;
29120;SDS011;16191;49.548;8.658;2023-03-23T04:35:28;3.45;;;1.45;;
29120;SDS011;16191;49.548;8.658;2023-03-23T04:38:12;2.80;;;1.30;;
29120;SDS011;16191;49.548;8.658;2023-03-23T04:40:40;3.22;;;1.58;;
29120;SDS011;16191;49.548;8.658;2023-03-23T04:43:23;2.97;;;1.25;;
29120;SDS011;16191;49.548;8.658;2023-03-23T04:46:03;1.88;;;1.20;;
29120;SDS011;16191;49.548;8.658;2023-03-23T04:48:35;2.60;;;1.25;;
29120;SDS011;16191;49.548;8.658;2023-03-23T04:51:09;1.90;;;1.13;;
29120;SDS011;16191;49.548;8.658;2023-03-23T04:53:36;2.22;;;1.13;;
29120;SDS011;16191;49.548;8.658;2023-03-23T04:56:02;2.47;;;1.30;;
29120;SDS011;16191;49.548;8.658;2023-03-23T04:58:33;2.75;;;1.30;;
29120;SDS011;16191;49.548;8.658;2023-03-23T05:01:14;4.18;;;1.50;;
29120;SDS011;16191;49.548;8.658;2023-03-23T05:03:48;5.15;;;1.75;;
29120;SDS011;16191;49.548;8.658;2023-03-23T05:06:14;3.35;;;1.20;;
29120;SDS011;16191;49.548;8.658;2023-03-23T05:08:41;2.78;;;1.40;;
29120;SDS011;16191;49.548;8.658;2023-03-23T05:11:06;3.67;;;1.67;;
29120;SDS011;16191;49.548;8.658;2023-03-23T05:13:36;5.03;;;1.37;;
29120;SDS011;16191;49.548;8.658;2023-03-23T05:16:05;3.55;;;2.05;;
29120;SDS011;16191;49.548;8.658;2023-03-23T05:18:33;7.00;;;1.73;;
29120;SDS011;16191;49.548;8.658;2023-03-23T05:21:02;3.83;;;1.98;;
29120;SDS011;16191;49.548;8.658;2023-03-23T05:26:05;1.50;;;1.40;;
29120;SDS011;16191;49.548;8.658;2023-03-23T05:28:32;2.80;;;1.70;;
29120;SDS011;16191;49.548;8.658;2023-03-23T05:31:11;3.45;;;1.83;;
29120;SDS011;16191;49.548;8.658;2023-03-23T05:33:38;2.72;;;1.70;;
29120;SDS011;16191;49.548;8.658;2023-03-23T05:36:14;3.92;;;1.90;;
29120;SDS011;16191;49.548;8.658;2023-03-23T05:39:05;4.25;;;1.98;;
29120;SDS011;16191;49.548;8.658;2023-03-23T05:41:55;3.17;;;1.52;;
29120;SDS011;16191;49.548;8.658;2023-03-23T05:44:24;5.93;;;1.73;;
29120;SDS011;16191;49.548;8.658;2023-03-23T05:46:52;2.47;;;1.55;;
29120;SDS011;16191;49.548;8.658;2023-03-23T05:49:18;5.80;;;1.95;;
29120;SDS011;16191;49.548;8.658;2023-03-23T05:51:46;4.70;;;1.45;;
29120;SDS011;16191;49.548;8.658;2023-03-23T05:54:13;5.00;;;1.75;;
29120;SDS011;16191;49.548;8.658;2023-03-23T05:56:40;6.35;;;1.40;;
29120;SDS011;16191;49.548;8.658;2023-03-23T05:59:15;3.20;;;1.38;;
29120;SDS011;16191;49.548;8.658;2023-03-23T06:01:44;4.40;;;1.63;;
29120;SDS011;16191;49.548;8.658;2023-03-23T06:04:09;3.38;;;1.65;;
29120;SDS011;16191;49.548;8.658;2023-03-23T06:06:56;1.65;;;1.35;;
29120;SDS011;16191;49.548;8.658;2023-03-23T06:09:22;4.43;;;1.70;;
29120;SDS011;16191;49.548;8.658;2023-03-23T06:12:04;4.18;;;1.45;;
29120;SDS011;16191;49.548;8.658;2023-03-23T06:14:37;5.65;;;1.60;;
29120;SDS011;16191;49.548;8.658;2023-03-23T06:17:03;3.88;;;1.70;;
29120;SDS011;16191;49.548;8.658;2023-03-23T06:19:29;2.38;;;1.75;;
29120;SDS011;16191;49.548;8.658;2023-03-23T06:22:05;3.05;;;2.10;;
29120;SDS011;16191;49.548;8.658;2023-03-23T06:24:49;3.65;;;1.95;;
29120;SDS011;16191;49.548;8.658;2023-03-23T06:27:20;4.60;;;1.77;;
29120;SDS011;16191;49.548;8.658;2023-03-23T06:29:47;5.32;;;1.98;;
29120;SDS011;16191;49.548;8.658;2023-03-23T06:32:13;4.00;;;1.90;;
29120;SDS011;16191;49.548;8.658;2023-03-23T06:34:41;4.32;;;1.90;;
29120;SDS011;16191;49.548;8.658;2023-03-23T06:37:28;3.00;;;1.70;;
29120;SDS011;16191;49.548;8.658;2023-03-23T06:40:06;4.47;;;2.00;;
29120;SDS011;16191;49.548;8.658;2023-03-23T06:42:37;2.92;;;2.00;;
29120;SDS011;16191;49.548;8.658;2023-03-23T06:45:22;3.05;;;1.70;;
29120;SDS011;16191;49.548;8.658;2023-03-23T06:47:55;3.38;;;1.80;;
29120;SDS011;16191;49.548;8.658;2023-03-23T06:50:21;2.78;;;1.70;;
29120;SDS011;16191;49.548;8.658;2023-03-23T06:52:48;5.40;;;1.80;;
29120;SDS011;16191;49.548;8.658;2023-03-23T06:55:16;2.78;;;1.77;;
29120;SDS011;16191;49.548;8.658;2023-03-23T06:57:43;2.53;;;1.90;;
29120;SDS011;16191;49.548;8.658;2023-03-23T07:00:11;3.33;;;1.60;;
29120;SDS011;16191;49.548;8.658;2023-03-23T07:02:40;2.80;;;1.48;;
29120;SDS011;16191;49.548;8.658;2023-03-23T07:05:07;3.00;;;1.90;;
29120;SDS011;16191;49.548;8.658;2023-03-23T07:07:37;2.67;;;1.80;;
29120;SDS011;16191;49.548;8.658;2023-03-23T07:10:32;4.35;;;2.38;;
29120;SDS011;16191;49.548;8.658;2023-03-23T07:12:59;7.22;;;2.03;;
29120;SDS011;16191;49.548;8.658;2023-03-23T07:15:28;5.72;;;2.00;;
29120;SDS011;16191;49.548;8.658;2023-03-23T07:17:55;2.40;;;1.58;;
29120;SDS011;16191;49.548;8.658;2023-03-23T07:20:36;2.95;;;1.73;;
29120;SDS011;16191;49.548;8.658;2023-03-23T07:23:02;3.28;;;1.70;;
29120;SDS011;16191;49.548;8.658;2023-03-23T07:25:47;3.00;;;1.88;;
29120;SDS011;16191;49.548;8.658;2023-03-23T07:28:19;4.90;;;2.10;;
29120;SDS011;16191;49.548;8.658;2023-03-23T07:30:45;6.72;;;1.80;;
29120;SDS011;16191;49.548;8.658;2023-03-23T07:33:11;4.00;;;1.60;;
29120;SDS011;16191;49.548;8.658;2023-03-23T07:35:37;4.22;;;1.60;;
29120;SDS011;16191;49.548;8.658;2023-03-23T07:38:06;4.07;;;2.13;;
29120;SDS011;16191;49.548;8.658;2023-03-23T07:40:33;4.07;;;2.00;;
29120;SDS011;16191;49.548;8.658;2023-03-23T07:43:05;4.55;;;1.50;;
29120;SDS011;16191;49.548;8.658;2023-03-23T07:46:00;2.15;;;1.08;;
29120;SDS011;16191;49.548;8.658;2023-03-23T07:48:38;2.45;;;1.13;;
29120;SDS011;16191;49.548;8.658;2023-03-23T07:51:04;5.30;;;1.20;;
29120;SDS011;16191;49.548;8.658;2023-03-23T07:53:32;1.67;;;1.10;;
29120;SDS011;16191;49.548;8.658;2023-03-23T07:56:28;1.35;;;1.17;;
29120;SDS011;16191;49.548;8.658;2023-03-23T07:59:05;2.05;;;1.00;;
29120;SDS011;16191;49.548;8.658;2023-03-23T08:01:32;2.92;;;0.90;;
29120;SDS011;16191;49.548;8.658;2023-03-23T08:04:18;0.70;;;0.70;;
29120;SDS011;16191;49.548;8.658;2023-03-23T08:07:01;1.10;;;0.73;;
29120;SDS011;16191;49.548;8.658;2023-03-23T08:09:50;1.90;;;0.80;;
29120;SDS011;16191;49.548;8.658;2023-03-23T08:12:51;1.00;;;0.60;;
29120;SDS011;16191;49.548;8.658;2023-03-23T08:15:30;1.77;;;0.90;;
29120;SDS011;16191;49.548;8.658;2023-03-23T08:18:14;1.50;;;0.90;;
29120;SDS011;16191;49.548;8.658;2023-03-23T08:20:58;5.43;;;1.10;;
29120;SDS011;16191;49.548;8.658;2023-03-23T08:23:43;1.98;;;1.25;;
29120;SDS011;16191;49.548;8.658;2023-03-23T08:26:32;1.98;;;1.10;;
29120;SDS011;16191;49.548;8.658;2023-03-23T08:29:23;3.75;;;1.08;;
29120;SDS011;16191;49.548;8.658;2023-03-23T08:32:03;1.33;;;0.85;;
29120;SDS011;16191;49.548;8.658;2023-03-23T08:34:42;0.98;;;0.80;;
29120;SDS011;16191;49.548;8.658;2023-03-23T08:37:08;2.30;;;1.10;;
29120;SDS011;16191;49.548;8.658;2023-03-23T08:39:55;2.42;;;1.00;;
29120;SDS011;16191;49.548;8.658;2023-03-23T08:42:38;2.90;;;1.27;;
29120;SDS011;16191;49.548;8.658;2023-03-23T08:45:23;3.63;;;0.98;;
29120;SDS011;16191;49.548;8.658;2023-03-23T08:48:07;2.33;;;1.13;;
29120;SDS011;16191;49.548;8.658;2023-03-23T08:51:01;2.75;;;1.10;;
29120;SDS011;16191;49.548;8.658;2023-03-23T08:53:45;4.45;;;1.40;;
29120;SDS011;16191;49.548;8.658;2023-03-23T08:56:26;1.55;;;0.93;;
29120;SDS011;16191;49.548;8.658;2023-03-23T08:59:11;8.77;;;1.50;;
29120;SDS011;16191;49.548;8.658;2023-03-23T09:01:50;3.03;;;1.20;;
29120;SDS011;16191;49.548;8.658;2023-03-23T09:04:22;1.98;;;1.40;;
29120;SDS011;16191;49.548;8.658;2023-03-23T09:07:09;3.65;;;1.30;;
29120;SDS011;16191;49.548;8.658;2023-03-23T09:09:36;2.67;;;1.10;;
29120;SDS011;16191;49.548;8.658;2023-03-23T09:12:05;7.18;;;1.10;;
29120;SDS011;16191;49.548;8.658;2023-03-23T09:14:31;3.60;;;1.55;;
29120;SDS011;16191;49.548;8.658;2023-03-23T09:16:57;2.92;;;1.15;;
29120;SDS011;16191;49.548;8.658;2023-03-23T09:19:22;1.20;;;1.05;;
29120;SDS011;16191;49.548;8.658;2023-03-23T09:21:48;7.85;;;1.33;;
29120;SDS011;16191;49.548;8.658;2023-03-23T09:24:14;4.30;;;1.30;;
29120;SDS011;16191;49.548;8.658;2023-03-23T09:26:40;2.22;;;1.60;;
29120;SDS011;16191;49.548;8.658;2023-03-23T09:29:06;3.13;;;1.27;;
29120;SDS011;16191;49.548;8.658;2023-03-23T09:31:31;3.38;;;1.40;;
29120;SDS011;16191;49.548;8.658;2023-03-23T09:33:57;3.35;;;1.40;;
29120;SDS011;16191;49.548;8.658;2023-03-23T09:36:24;5.22;;;1.30;;
29120;SDS011;16191;49.548;8.658;2023-03-23T09:38:57;4.25;;;1.42;;
29120;SDS011;16191;49.548;8.658;2023-03-23T09:46:35;3.17;;;1.10;;
29120;SDS011;16191;49.548;8.658;2023-03-23T09:49:20;3.10;;;1.30;;
29120;SDS011;16191;49.548;8.658;2023-03-23T09:51:54;3.78;;;1.25;;
29120;SDS011;16191;49.548;8.658;2023-03-23T09:54:28;3.47;;;1.20;;
29120;SDS011;16191;49.548;8.658;2023-03-23T09:56:55;3.85;;;1.00;;
29120;SDS011;16191;49.548;8.658;2023-03-23T09:59:39;1.77;;;0.90;;
29120;SDS011;16191;49.548;8.658;2023-03-23T10:02:17;1.50;;;0.63;;
29120;SDS011;16191;49.548;8.658;2023-03-23T10:07:19;1.02;;;0.55;;
29120;SDS011;16191;49.548;8.658;2023-03-23T10:09:48;5.85;;;1.17;;
29120;SDS011;16191;49.548;8.658;2023-03-23T10:12:31;6.25;;;1.30;;
29120;SDS011;16191;49.548;8.658;2023-03-23T10:20:28;3.85;;;1.23;;
29120;SDS011;16191;49.548;8.658;2023-03-23T10:23:08;2.97;;;1.13;;
29120;SDS011;16191;49.548;8.658;2023-03-23T10:25:41;2.75;;;1.23;;
29120;SDS011;16191;49.548;8.658;2023-03-23T10:28:17;2.38;;;0.95;;
29120;SDS011;16191;49.548;8.658;2023-03-23T10:30:47;1.20;;;0.90;;
29120;SDS011;16191;49.548;8.658;2023-03-23T10:33:18;2.35;;;1.10;;
29120;SDS011;16191;49.548;8.658;2023-03-23T10:35:56;2.15;;;1.02;;
29120;SDS011;16191;49.548;8.658;2023-03-23T10:38:34;2.30;;;0.82;;
29120;SDS011;16191;49.548;8.658;2023-03-23T10:41:06;1.73;;;0.95;;
29120;SDS011;16191;49.548;8.658;2023-03-23T10:43:37;2.88;;;1.10;;
29120;SDS011;16191;49.548;8.658;2023-03-23T10:49:15;1.73;;;0.90;;
29120;SDS011;16191;49.548;8.658;2023-03-23T10:51:46;4.75;;;1.00;;
29120;SDS011;16191;49.548;8.658;2023-03-23T10:54:26;2.00;;;0.85;;
29120;SDS011;16191;49.548;8.658;2023-03-23T10:56:57;2.22;;;0.95;;
29120;SDS011;16191;49.548;8.658;2023-03-23T10:59:27;1.30;;;0.85;;
29120;SDS011;16191;49.548;8.658;2023-03-23T11:01:55;1.70;;;0.95;;
29120;SDS011;16191;49.548;8.658;2023-03-23T11:04:24;1.10;;;0.80;;
29120;SDS011;16191;49.548;8.658;2023-03-23T11:06:52;2.30;;;0.93;;
29120;SDS011;16191;49.548;8.658;2023-03-23T11:09:21;1.52;;;1.00;;
29120;SDS011;16191;49.548;8.658;2023-03-23T11:11:58;2.00;;;0.70;;
29120;SDS011;16191;49.548;8.658;2023-03-23T11:14:28;1.27;;;0.60;;
29120;SDS011;16191;49.548;8.658;2023-03-23T11:16:56;1.25;;;0.80;;
29120;SDS011;16191;49.548;8.658;2023-03-23T11:19:28;2.03;;;0.98;;
29120;SDS011;16191;49.548;8.658;2023-03-23T11:22:19;0.80;;;0.77;;
29120;SDS011;16191;49.548;8.658;2023-03-23T11:24:52;2.25;;;1.10;;
29120;SDS011;16191;49.548;8.658;2023-03-23T11:27:18;4.68;;;1.27;;
29120;SDS011;16191;49.548;8.658;2023-03-23T11:29:56;2.33;;;0.77;;
29120;SDS011;16191;49.548;8.658;2023-03-23T11:32:27;2.87;;;1.10;;
29120;SDS011;16191;49.548;8.658;2023-03-23T11:34:56;1.05;;;0.93;;
29120;SDS011;16191;49.548;8.658;2023-03-23T11:39:58;8.23;;;0.90;;
29120;SDS011;16191;49.548;8.658;2023-03-23T11:42:34;5.70;;;1.20;;
29120;SDS011;16191;49.548;8.658;2023-03-23T11:45:20;3.40;;;0.93;;
29120;SDS011;16191;49.548;8.658;2023-03-23T11:53:41;1.38;;;0.90;;
29120;SDS011;16191;49.548;8.658;2023-03-23T11:56:17;1.45;;;0.73;;
29120;SDS011;16191;49.548;8.658;2023-03-23T11:58:49;1.13;;;0.88;;
29120;SDS011;16191;49.548;8.658;2023-03-23T12:01:21;1.75;;;0.70;;
29120;SDS011;16191;49.548;8.658;2023-03-23T12:06:41;1.63;;;1.00;;
29120;SDS011;16191;49.548;8.658;2023-03-23T12:12:13;1.75;;;0.90;;
29120;SDS011;16191;49.548;8.658;2023-03-23T12:14:53;1.30;;;0.75;;
29120;SDS011;16191;49.548;8.658;2023-03-23T12:20:32;2.63;;;1.25;;
29120;SDS011;16191;49.548;8.658;2023-03-23T12:23:23;3.25;;;0.80;;
29120;SDS011;16191;49.548;8.658;2023-03-23T12:31:33;3.05;;;0.90;;
29120;SDS011;16191;49.548;8.658;2023-03-23T12:34:17;1.77;;;1.00;;
29120;SDS011;16191;49.548;8.658;2023-03-23T12:47:57;3.40;;;1.05;;
29120;SDS011;16191;49.548;8.658;2023-03-23T12:56:04;2.22;;;1.08;;
29120;SDS011;16191;49.548;8.658;2023-03-23T12:58:36;2.08;;;1.00;;
29120;SDS011;16191;49.548;8.658;2023-03-23T13:03:51;3.60;;;1.20;;
29120;SDS011;16191;49.548;8.658;2023-03-23T13:09:04;2.25;;;1.20;;
29120;SDS011;16191;49.548;8.658;2023-03-23T13:11:39;3.25;;;1.08;;
29120;SDS011;16191;49.548;8.658;2023-03-23T13:14:40;2.58;;;1.20;;
29120;SDS011;16191;49.548;8.658;2023-03-23T13:28:27;1.92;;;1.20;;
29120;SDS011;16191;49.548;8.658;2023-03-23T13:30:55;2.83;;;1.23;;
29120;SDS011;16191;49.548;8.658;2023-03-23T13:33:23;4.20;;;1.25;;
29120;SDS011;16191;49.548;8.658;2023-03-23T13:35:49;1.48;;;1.15;;
29120;SDS011;16191;49.548;8.658;2023-03-23T13:38:26;1.33;;;1.00;;
29120;SDS011;16191;49.548;8.658;2023-03-23T13:40:56;2.45;;;1.40;;
29120;SDS011;16191;49.548;8.658;2023-03-23T13:43:27;2.47;;;1.52;;
29120;SDS011;16191;49.548;8.658;2023-03-23T13:48:45;2.33;;;1.00;;
29120;SDS011;16191;49.548;8.658;2023-03-23T13:51:36;1.58;;;1.20;;
29120;SDS011;16191;49.548;8.658;2023-03-23T13:56:55;3.22;;;1.35;;
29120;SDS011;16191;49.548;8.658;2023-03-23T14:01:51;2.90;;;1.20;;
29120;SDS011;16191;49.548;8.658;2023-03-23T14:04:19;3.95;;;1.60;;
29120;SDS011;16191;49.548;8.658;2023-03-23T14:06:46;1.80;;;1.27;;
29120;SDS011;16191;49.548;8.658;2023-03-23T14:09:28;3.58;;;1.52;;
29120;SDS011;16191;49.548;8.658;2023-03-23T14:12:05;9.25;;;3.58;;
29120;SDS011;16191;49.548;8.658;2023-03-23T14:14:43;7.57;;;2.60;;
29120;SDS011;16191;49.548;8.658;2023-03-23T14:17:18;3.83;;;1.70;;
29120;SDS011;16191;49.548;8.658;2023-03-23T14:19:48;4.10;;;1.58;;
29120;SDS011;16191;49.548;8.658;2023-03-23T14:22:27;3.92;;;1.40;;
29120;SDS011;16191;49.548;8.658;2023-03-23T14:25:02;4.00;;;1.55;;
29120;SDS011;16191;49.548;8.658;2023-03-23T14:27:35;3.65;;;1.88;;
29120;SDS011;16191;49.548;8.658;2023-03-23T14:30:03;4.63;;;1.85;;
29120;SDS011;16191;49.548;8.658;2023-03-23T14:32:31;2.00;;;1.45;;
29120;SDS011;16191;49.548;8.658;2023-03-23T14:34:57;3.10;;;1.88;;
29120;SDS011;16191;49.548;8.658;2023-03-23T14:37:25;5.20;;;1.27;;
29120;SDS011;16191;49.548;8.658;2023-03-23T14:39:52;3.17;;;1.63;;
29120;SDS011;16191;49.548;8.658;2023-03-23T14:42:22;2.03;;;1.48;;
29120;SDS011;16191;49.548;8.658;2023-03-23T14:44:53;1.77;;;1.30;;
29120;SDS011;16191;49.548;8.658;2023-03-23T14:47:20;3.60;;;1.77;;
29120;SDS011;16191;49.548;8.658;2023-03-23T14:49:59;2.33;;;1.45;;
29120;SDS011;16191;49.548;8.658;2023-03-23T14:52:35;2.28;;;1.48;;
29120;SDS011;16191;49.548;8.658;2023-03-23T14:55:12;4.47;;;1.55;;
29120;SDS011;16191;49.548;8.658;2023-03-23T14:57:40;1.67;;;1.30;;
29120;SDS011;16191;49.548;8.658;2023-03-23T15:02:47;6.88;;;1.48;;
29120;SDS011;16191;49.548;8.658;2023-03-23T15:05:22;2.97;;;1.50;;
29120;SDS011;16191;49.548;8.658;2023-03-23T15:07:58;2.03;;;1.42;;
29120;SDS011;16191;49.548;8.658;2023-03-23T15:10:27;4.30;;;1.50;;
29120;SDS011;16191;49.548;8.658;2023-03-23T15:12:53;3.28;;;1.33;;
29120;SDS011;16191;49.548;8.658;2023-03-23T15:15:27;5.82;;;1.48;;
29120;SDS011;16191;49.548;8.658;2023-03-23T15:17:54;3.03;;;1.80;;
29120;SDS011;16191;49.548;8.658;2023-03-23T15:20:27;6.47;;;1.88;;
29120;SDS011;16191;49.548;8.658;2023-03-23T15:23:04;2.53;;;1.60;;
29120;SDS011;16191;49.548;8.658;2023-03-23T15:25:32;2.42;;;1.45;;
29120;SDS011;16191;49.548;8.658;2023-03-23T15:30:50;4.70;;;1.67;;
29120;SDS011;16191;49.548;8.658;2023-03-23T15:33:18;4.85;;;1.80;;
29120;SDS011;16191;49.548;8.658;2023-03-23T15:35:46;2.85;;;1.55;;
29120;SDS011;16191;49.548;8.658;2023-03-23T15:38:21;5.40;;;1.67;;
29120;SDS011;16191;49.548;8.658;2023-03-23T15:40:52;3.28;;;1.30;;
29120;SDS011;16191;49.548;8.658;2023-03-23T15:43:24;4.40;;;1.92;;
29120;SDS011;16191;49.548;8.658;2023-03-23T15:45:57;3.35;;;1.60;;
29120;SDS011;16191;49.548;8.658;2023-03-23T15:48:33;4.68;;;1.40;;
29120;SDS011;16191;49.548;8.658;2023-03-23T15:51:11;2.55;;;1.33;;
29120;SDS011;16191;49.548;8.658;2023-03-23T15:53:38;3.63;;;1.55;;
29120;SDS011;16191;49.548;8.658;2023-03-23T15:56:06;1.85;;;1.20;;
29120;SDS011;16191;49.548;8.658;2023-03-23T15:58:33;2.63;;;1.20;;
29120;SDS011;16191;49.548;8.658;2023-03-23T16:01:10;2.60;;;1.30;;
29120;SDS011;16191;49.548;8.658;2023-03-23T16:03:49;4.38;;;1.30;;
29120;SDS011;16191;49.548;8.658;2023-03-23T16:06:19;3.83;;;1.60;;
29120;SDS011;16191;49.548;8.658;2023-03-23T16:08:51;2.45;;;1.27;;
29120;SDS011;16191;49.548;8.658;2023-03-23T16:11:20;4.85;;;1.95;;
29120;SDS011;16191;49.548;8.658;2023-03-23T16:13:48;2.35;;;1.17;;
29120;SDS011;16191;49.548;8.658;2023-03-23T16:16:16;1.65;;;1.20;;
29120;SDS011;16191;49.548;8.658;2023-03-23T16:21:12;1.75;;;1.15;;
29120;SDS011;16191;49.548;8.658;2023-03-23T16:23:39;2.67;;;1.45;;
29120;SDS011;16191;49.548;8.658;2023-03-23T16:26:06;4.32;;;1.40;;
29120;SDS011;16191;49.548;8.658;2023-03-23T16:28:33;5.90;;;1.90;;
29120;SDS011;16191;49.548;8.658;2023-03-23T16:30:59;3.67;;;1.40;;
29120;SDS011;16191;49.548;8.658;2023-03-23T16:33:26;1.65;;;1.10;;
29120;SDS011;16191;49.548;8.658;2023-03-23T16:35:52;2.03;;;1.27;;
29120;SDS011;16191;49.548;8.658;2023-03-23T16:38:19;1.67;;;1.00;;
29120;SDS011;16191;49.548;8.658;2023-03-23T16:40:46;2.25;;;1.30;;
29120;SDS011;16191;49.548;8.658;2023-03-23T16:43:12;4.32;;;1.50;;
29120;SDS011;16191;49.548;8.658;2023-03-23T16:45:40;2.58;;;1.40;;
29120;SDS011;16191;49.548;8.658;2023-03-23T16:48:09;2.92;;;1.80;;
29120;SDS011;16191;49.548;8.658;2023-03-23T16:50:38;3.80;;;2.13;;
29120;SDS011;16191;49.548;8.658;2023-03-23T16:53:05;2.92;;;1.77;;
29120;SDS011;16191;49.548;8.658;2023-03-23T16:55:33;3.05;;;1.60;;
29120;SDS011;16191;49.548;8.658;2023-03-23T16:58:01;2.58;;;1.60;;
29120;SDS011;16191;49.548;8.658;2023-03-23T17:00:31;4.95;;;1.77;;
29120;SDS011;16191;49.548;8.658;2023-03-23T17:02:58;3.40;;;1.70;;
29120;SDS011;16191;49.548;8.658;2023-03-23T17:05:25;5.25;;;2.25;;
29120;SDS011;16191;49.548;8.658;2023-03-23T17:07:54;4.35;;;2.30;;
29120;SDS011;16191;49.548;8.658;2023-03-23T17:10:21;3.60;;;1.88;;
29120;SDS011;16191;49.548;8.658;2023-03-23T17:12:52;3.60;;;1.60;;
29120;SDS011;16191;49.548;8.658;2023-03-23T17:15:20;2.33;;;1.90;;
29120;SDS011;16191;49.548;8.658;2023-03-23T17:17:46;4.97;;;2.10;;